Royal Phoenix — HOWP — position and weather

sailwx.info

Track history (hours):
 
Tides and Currents Weather Stations Pressure Air Temp Water Temp Dewpoint Dewpoint Depression Visibility Wind Speed Wind Dir Waves Ship Positions

Royal Phoenix

Last reported at 2017-Nov-03 22:38 UTC. Time now 2017-Nov-19 03:05 UTC.
Position N 36°02' E 015°00'.
Warning: this ship's position is 15 days out of date.

Length 190 m; draft 10.4 m.

Type: Cargo ship. MMSI: 357284000.

Date/timePositionNaut miles runAvg speedWind from/ knotsBaromVisibWave heightAir tempDewpointWater temp
2017-Nov-03 22:38N 36°02' E 015°00'1314.0
2017-Nov-03 21:43N 36°06' E 014°46'314.0
2017-Nov-03 21:29N 36°08' E 014°42'714.0
2017-Nov-03 21:00N 36°10' E 014°34'713.9
2017-Nov-03 20:30N 36°12' E 014°26'713.8
2017-Nov-03 20:00N 36°14' E 014°18'713.6
2017-Nov-03 19:30N 36°16' E 014°10'713.6
2017-Nov-03 19:00N 36°18' E 014°02'713.7
2017-Nov-03 18:30N 36°20' E 013°53'713.7
2017-Nov-03 18:00N 36°22' E 013°45'713.2
2017-Nov-03 17:30N 36°24' E 013°37'  
2017-Oct-31 20:02N 35°59' W 005°16'214.4
2017-Oct-31 19:56N 35°59' W 005°18'22613.0
2017-Oct-31 02:29N 35°55' W 009°58'712.9
2017-Oct-31 01:55N 35°55' W 010°07'3812.9
2017-Oct-30 22:58N 35°56' W 010°54'1012.7
2017-Oct-30 22:12N 35°56' W 011°06'712.9
2017-Oct-30 21:41N 35°56' W 011°14'313.3
2017-Oct-30 21:29N 35°56' W 011°17'2112.6
2017-Oct-30 19:49N 35°56' W 011°43'2212.8
2017-Oct-30 18:07N 35°57' W 012°10'112.8
2017-Oct-30 18:01N 35°57' W 012°12'612.4
2017-Oct-30 17:31N 35°57' W 012°19'7512.7
2017-Oct-30 11:38N 35°58' W 013°52'5812.8
2017-Oct-30 07:08N 35°59' W 015°03'212.9
2017-Oct-30 07:00N 35°59' W 015°05'1212.5
2017-Oct-30 06:00N 35°60' W 015°20'712.6
2017-Oct-30 05:29N 35°60' W 015°29'1112.8
2017-Oct-30 04:38N 35°60' W 015°42'212.7
2017-Oct-30 04:29N 35°60' W 015°44'812.4
2017-Oct-30 03:50N 35°60' W 015°54'412.7
2017-Oct-30 03:31N 36°01' W 015°59'712.8
2017-Oct-30 03:00N 36°02' W 016°07'612.6
2017-Oct-30 02:31N 36°02' W 016°15'612.6
2017-Oct-30 02:00N 36°02' W 016°23'612.8
2017-Oct-30 01:31N 36°02' W 016°30'612.9
2017-Oct-30 01:01N 36°03' W 016°38'1012.8
2017-Oct-30 00:16N 36°03' W 016°50'313.1
2017-Oct-30 00:01N 36°04' W 016°54'713.2
2017-Oct-29 23:30N 36°04' W 017°03'713.1
2017-Oct-29 23:00N 36°04' W 017°11'4213.2
2017-Oct-29 19:48N 36°06' W 018°03'613.3
2017-Oct-29 19:23N 36°07' W 018°10'1113.6
2017-Oct-29 18:35N 36°07' W 018°23'5413.5
2017-Oct-29 14:34N 36°10' W 019°30'413.2
2017-Oct-29 14:16N 36°10' W 019°35'2413.5
2017-Oct-29 12:30N 36°11' W 020°05'2213.4
2017-Oct-29 10:49N 36°13' W 020°32'813.6
2017-Oct-29 10:14N 36°13' W 020°42'413.5
2017-Oct-29 09:58N 36°13' W 020°47'19613.1
2017-Oct-28 19:00N 36°25' W 024°49'713.0
2017-Oct-28 18:30N 36°26' W 024°57'613.0
2017-Oct-28 18:00N 36°26' W 025°05'713.1
2017-Oct-28 17:30N 36°26' W 025°13'613.0
2017-Oct-28 17:00N 36°26' W 025°22'613.0
2017-Oct-28 16:30N 36°26' W 025°30'713.2
2017-Oct-28 16:00N 36°27' W 025°38'612.9
2017-Oct-28 15:31N 36°27' W 025°46'713.0
2017-Oct-28 15:00N 36°27' W 025°54'612.6
2017-Oct-28 14:31N 36°27' W 026°02'612.8
2017-Oct-28 14:00N 36°27' W 026°10'713.0
2017-Oct-28 13:30N 36°27' W 026°18'812.9
2017-Oct-28 12:51N 36°27' W 026°28'1112.8
2017-Oct-28 12:00N 36°27' W 026°42'  
Track history (hours):
 
Tides and Currents Weather Stations Pressure Air Temp Water Temp Dewpoint Dewpoint Depression Visibility Wind Speed Wind Dir Waves Ship Positions

Royal Phoenix

Last reported at 2017-Nov-03 22:38 UTC. Time now 2017-Nov-19 03:05 UTC.
Position N 36°02' E 015°00'.
Warning: this ship's position is 15 days out of date.

Length 190 m; draft 10.4 m.

Type: Cargo ship. MMSI: 357284000.

Date/timePositionNaut miles runAvg speedWind from/ knotsBaromVisibWave heightAir tempDewpointWater temp
2017-Nov-03 22:38N 36°02' E 015°00'1314.0
2017-Nov-03 21:43N 36°06' E 014°46'314.0
2017-Nov-03 21:29N 36°08' E 014°42'714.0
2017-Nov-03 21:00N 36°10' E 014°34'713.9
2017-Nov-03 20:30N 36°12' E 014°26'713.8
2017-Nov-03 20:00N 36°14' E 014°18'713.6
2017-Nov-03 19:30N 36°16' E 014°10'713.6
2017-Nov-03 19:00N 36°18' E 014°02'713.7
2017-Nov-03 18:30N 36°20' E 013°53'713.7
2017-Nov-03 18:00N 36°22' E 013°45'713.2
2017-Nov-03 17:30N 36°24' E 013°37'  
2017-Oct-31 20:02N 35°59' W 005°16'214.4
2017-Oct-31 19:56N 35°59' W 005°18'22613.0
2017-Oct-31 02:29N 35°55' W 009°58'712.9
2017-Oct-31 01:55N 35°55' W 010°07'3812.9
2017-Oct-30 22:58N 35°56' W 010°54'1012.7
2017-Oct-30 22:12N 35°56' W 011°06'712.9
2017-Oct-30 21:41N 35°56' W 011°14'313.3
2017-Oct-30 21:29N 35°56' W 011°17'2112.6
2017-Oct-30 19:49N 35°56' W 011°43'2212.8
2017-Oct-30 18:07N 35°57' W 012°10'112.8
2017-Oct-30 18:01N 35°57' W 012°12'612.4
2017-Oct-30 17:31N 35°57' W 012°19'7512.7
2017-Oct-30 11:38N 35°58' W 013°52'5812.8
2017-Oct-30 07:08N 35°59' W 015°03'212.9
2017-Oct-30 07:00N 35°59' W 015°05'1212.5
2017-Oct-30 06:00N 35°60' W 015°20'712.6
2017-Oct-30 05:29N 35°60' W 015°29'1112.8
2017-Oct-30 04:38N 35°60' W 015°42'212.7
2017-Oct-30 04:29N 35°60' W 015°44'812.4
2017-Oct-30 03:50N 35°60' W 015°54'412.7
2017-Oct-30 03:31N 36°01' W 015°59'712.8
2017-Oct-30 03:00N 36°02' W 016°07'612.6
2017-Oct-30 02:31N 36°02' W 016°15'612.6
2017-Oct-30 02:00N 36°02' W 016°23'612.8
2017-Oct-30 01:31N 36°02' W 016°30'612.9
2017-Oct-30 01:01N 36°03' W 016°38'1012.8
2017-Oct-30 00:16N 36°03' W 016°50'313.1
2017-Oct-30 00:01N 36°04' W 016°54'713.2
2017-Oct-29 23:30N 36°04' W 017°03'713.1
2017-Oct-29 23:00N 36°04' W 017°11'4213.2
2017-Oct-29 19:48N 36°06' W 018°03'613.3
2017-Oct-29 19:23N 36°07' W 018°10'1113.6
2017-Oct-29 18:35N 36°07' W 018°23'5413.5
2017-Oct-29 14:34N 36°10' W 019°30'413.2
2017-Oct-29 14:16N 36°10' W 019°35'2413.5
2017-Oct-29 12:30N 36°11' W 020°05'2213.4
2017-Oct-29 10:49N 36°13' W 020°32'813.6
2017-Oct-29 10:14N 36°13' W 020°42'413.5
2017-Oct-29 09:58N 36°13' W 020°47'19613.1
2017-Oct-28 19:00N 36°25' W 024°49'713.0
2017-Oct-28 18:30N 36°26' W 024°57'613.0
2017-Oct-28 18:00N 36°26' W 025°05'713.1
2017-Oct-28 17:30N 36°26' W 025°13'613.0
2017-Oct-28 17:00N 36°26' W 025°22'613.0
2017-Oct-28 16:30N 36°26' W 025°30'713.2
2017-Oct-28 16:00N 36°27' W 025°38'612.9
2017-Oct-28 15:31N 36°27' W 025°46'713.0
2017-Oct-28 15:00N 36°27' W 025°54'612.6
2017-Oct-28 14:31N 36°27' W 026°02'612.8
2017-Oct-28 14:00N 36°27' W 026°10'713.0
2017-Oct-28 13:30N 36°27' W 026°18'812.9
2017-Oct-28 12:51N 36°27' W 026°28'1112.8
2017-Oct-28 12:00N 36°27' W 026°42'  

Dump ship's entire track history